Time;durP1;ratioP1;P1;durP2;ratioP2;P2;SDS_P1;SDS_P2;PMS_P1;PMS_P2;Temp;Humidity;BMP_temperature;BMP_pressure;BME280_temperature;BME280_humidity;BME280_pressure;Samples;Min_cycle;Max_cycle;Signal;HPM_P1;HPM_P2
2022/05/08 09:24:37;;;;;;;3.70;2.77;;;;;;;53.40;3.67;98486.38;10576035;27;1723575;-80
2022/05/08 09:30:19;;;;;;;4.22;2.75;;;;;;;53.34;3.51;98489.91;10594680;28;20408;-81
2022/05/08 09:35:47;;;;;;;2.60;2.40;;;;;;;53.03;3.25;98486.16;10590458;28;20078;-78
2022/05/08 09:41:09;;;;;;;4.77;2.90;;;;;;;52.72;3.47;98477.13;10574822;28;20039;-80
2022/05/08 09:46:35;;;;;;;;;;;;;;;52.40;3.94;98468.22;10534312;28;20358;-81
2022/05/08 09:52:05;;;;;;;3.20;2.72;;;;;;;51.22;4.18;98470.59;10572286;28;19927;-79
2022/05/08 09:57:33;;;;;;;2.60;2.40;;;;;;;52.43;3.65;98475.44;10546461;28;20097;-80
2022/05/08 10:03:43;;;;;;;2.78;2.58;;;;;;;52.36;3.54;98469.31;10566331;28;20446;-78
2022/05/08 10:22:05;;;;;;;3.33;3.08;;;;;;;52.59;3.14;98461.97;10596705;28;20051;-93
2022/05/08 10:27:52;;;;;;;4.15;3.85;;;;;;;53.65;2.53;98454.81;10602065;28;20042;-91
2022/05/08 10:34:06;;;;;;;4.38;3.95;;;;;;;54.65;2.16;98462.78;10544499;28;20063;-89
2022/05/08 10:40:02;;;;;;;5.68;4.95;;;;;;;54.11;2.53;98451.81;10558700;28;20052;-84
2022/05/08 10:45:30;;;;;;;3.90;3.60;;;;;;;54.08;2.05;98453.63;10572000;28;20040;-84
2022/05/08 10:51:05;;;;;;;1.92;1.15;;;;;;;53.29;2.83;98441.91;10556519;28;20450;-89
2022/05/08 10:56:30;;;;;;;2.65;0.75;;;;;;;51.44;2.56;98441.19;10557687;28;20524;-87
2022/05/08 11:02:00;;;;;;;3.08;0.88;;;;;;;47.76;3.58;98439.63;10531787;28;20097;-84
2022/05/08 11:07:22;;;;;;;1.83;0.82;;;;;;;43.22;5.74;98429.94;10554582;28;20050;-83
2022/05/08 11:13:02;;;;;;;3.20;1.10;;;;;;;40.48;8.19;98414.50;10544461;28;20404;-84
2022/05/08 11:18:24;;;;;;;3.83;1.08;;;;;;;37.91;9.31;98423.16;10570239;28;20055;-84
2022/05/08 11:23:46;;;;;;;3.30;1.20;;;;;;;35.72;10.68;98416.66;10543274;28;20058;-87
2022/05/08 11:29:08;;;;;;;4.55;1.23;;;;;;;35.17;11.54;98420.00;10537561;28;20039;-88
2022/05/08 11:40:10;;;;;;;4.70;1.30;;;;;;;33.29;12.60;98404.91;10514022;28;20048;-82
2022/05/08 11:45:31;;;;;;;2.13;1.13;;;;;;;32.49;14.67;98404.34;10498803;28;20056;-82
2022/05/08 11:50:52;;;;;;;3.13;1.30;;;;;;;32.37;14.39;98396.50;10513350;28;20604;-81
2022/05/08 11:56:27;;;;;;;3.28;1.40;;;;;;;31.69;14.78;98404.22;10513575;28;20040;-83
2022/05/08 12:01:49;;;;;;;3.60;1.40;;;;;;;31.25;15.38;98394.34;10513179;28;20048;-81
2022/05/08 12:07:13;;;;;;;5.75;1.25;;;;;;;30.75;15.78;98387.31;10485720;28;20055;-79
2022/05/08 12:12:35;;;;;;;2.33;1.25;;;;;;;30.75;16.13;98393.06;10513133;28;20051;-79
2022/05/08 12:17:59;;;;;;;2.08;1.50;;;;;;;30.57;16.06;98390.91;10499155;28;20374;-80
2022/05/08 12:23:20;;;;;;;3.60;1.40;;;;;;;30.25;16.33;98388.09;10514264;28;20059;-77
2022/05/08 12:28:44;;;;;;;3.08;1.70;;;;;;;30.31;17.24;98383.06;10498497;28;20040;-78
2022/05/08 12:34:06;;;;;;;2.75;1.55;;;;;;;30.41;16.51;98385.91;10484767;28;20055;-78
2022/05/08 12:39:30;;;;;;;3.13;1.25;;;;;;;30.05;17.40;98374.41;10511621;28;20055;-81
2022/05/08 12:44:52;;;;;;;3.45;2.28;;;;;;;30.26;17.74;98375.13;10524504;28;20050;-79
2022/05/08 12:50:13;;;;;;;2.67;1.88;;;;;;;30.39;18.01;98385.91;10551304;28;20048;-75
2022/05/08 12:55:34;;;;;;;3.30;1.60;;;;;;;30.36;17.92;98378.72;10538554;28;20044;-78
2022/05/08 13:00:56;;;;;;;4.30;2.57;;;;;;;30.30;18.88;98370.06;10539001;28;20039;-78
2022/05/08 13:06:16;;;;;;;2.75;1.92;;;;;;;30.20;18.67;98370.09;10538575;28;20473;-78
2022/05/08 13:11:37;;;;;;;4.60;2.23;;;;;;;30.56;19.22;98372.19;10524524;28;20153;-78
2022/05/08 13:16:59;;;;;;;2.90;1.83;;;;;;;30.16;19.63;98372.97;10519212;28;20043;-80
2022/05/08 13:22:22;;;;;;;3.85;1.33;;;;;;;29.19;21.60;98374.22;10511400;28;20060;-78
2022/05/08 13:27:48;;;;;;;9.75;1.33;;;;;;;28.53;21.56;98375.31;10540825;28;20431;-77
2022/05/08 13:33:09;;;;;;;4.63;1.60;;;;;;;27.97;22.39;98378.47;10538959;28;20044;-78
2022/05/08 13:38:31;;;;;;;4.88;1.58;;;;;;;27.59;24.28;98383.09;10538687;28;20040;-77
2022/05/08 13:43:52;;;;;;;4.43;1.35;;;;;;;27.22;24.82;98384.88;10551795;28;20048;-79
2022/05/08 13:49:13;;;;;;;2.88;1.50;;;;;;;27.06;25.53;98384.69;10537448;28;20040;-78
2022/05/08 13:54:36;;;;;;;3.72;1.55;;;;;;;26.97;25.67;98385.97;10551351;28;20048;-78
2022/05/08 13:59:59;;;;;;;4.85;1.92;;;;;;;26.96;25.27;98385.25;10538048;28;20100;-78
2022/05/08 14:05:19;;;;;;;2.80;1.38;;;;;;;26.64;26.14;98379.09;10537347;28;20526;-77
2022/05/08 14:10:40;;;;;;;3.35;1.40;;;;;;;26.40;26.59;98377.31;10543475;28;20059;-77
2022/05/08 14:16:01;;;;;;;2.20;1.50;;;;;;;26.51;26.52;98373.19;10512386;28;20395;-77
2022/05/08 14:21:22;;;;;;;5.57;1.60;;;;;;;26.34;26.76;98382.91;10529245;28;20130;-79
2022/05/08 14:26:43;;;;;;;5.93;1.67;;;;;;;26.33;26.58;98387.19;10513482;28;20044;-78
2022/05/08 14:37:48;;;;;;;3.33;1.98;;;;;;;26.13;27.20;98389.75;10507941;28;20075;-76
2022/05/08 14:43:10;;;;;;;4.45;1.70;;;;;;;25.99;28.18;98390.25;10516830;28;20166;-82
2022/05/08 14:48:31;;;;;;;4.95;1.80;;;;;;;25.81;28.67;98404.22;10531262;28;20044;-77
2022/05/08 14:53:51;;;;;;;4.03;2.15;;;;;;;25.56;28.98;98403.03;10502785;28;20486;-78
2022/05/08 14:59:12;;;;;;;4.20;2.53;;;;;;;25.50;30.09;98405.78;10516112;28;20040;-75
2022/05/08 15:04:33;;;;;;;4.28;3.65;;;;;;;25.30;32.23;98406.84;10501479;28;20047;-80
2022/05/08 15:09:56;;;;;;;3.35;2.60;;;;;;;25.18;31.32;98405.84;10502323;28;20093;-76
2022/05/08 15:15:17;;;;;;;3.65;2.03;;;;;;;24.89;31.93;98427.34;10515241;28;20036;-77
2022/05/08 15:20:38;;;;;;;2.90;1.97;;;;;;;24.61;32.81;98416.03;10501970;28;20108;-75
2022/05/08 15:25:59;;;;;;;4.18;2.30;;;;;;;24.41;33.47;98422.00;10515952;28;20040;-77
2022/05/08 15:31:20;;;;;;;4.00;2.58;;;;;;;24.32;33.21;98423.22;10542820;28;20040;-78
2022/05/08 15:36:42;;;;;;;5.53;1.88;;;;;;;24.23;33.68;98419.44;10556369;28;20042;-78
2022/05/08 15:42:03;;;;;;;3.50;2.40;;;;;;;24.07;34.58;98428.31;10556539;28;20039;-75
2022/05/08 15:47:25;;;;;;;4.55;2.50;;;;;;;23.90;35.20;98435.72;10556182;28;20500;-78
2022/05/08 15:52:46;;;;;;;4.83;2.33;;;;;;;23.51;35.13;98451.03;10555339;28;20435;-81
2022/05/08 15:58:07;;;;;;;4.85;1.77;;;;;;;23.08;35.42;98444.13;10527154;28;20071;-80
2022/05/08 16:03:28;;;;;;;3.28;2.10;;;;;;;22.73;35.84;98456.56;10555739;28;20047;-75
2022/05/08 16:08:49;;;;;;;2.05;1.48;;;;;;;22.39;36.33;98461.91;10540944;28;20043;-77
2022/05/08 16:25:28;;;;;;;3.60;1.20;;;;;;;21.67;36.83;98458.03;10487114;28;20057;-75
2022/05/08 16:30:51;;;;;;;1.30;1.00;;;;;;;21.29;37.14;98455.25;10483512;28;20049;-74
2022/05/08 16:36:12;;;;;;;3.47;1.10;;;;;;;21.03;37.82;98451.41;10498518;28;20040;-74
2022/05/08 16:41:32;;;;;;;1.70;0.95;;;;;;;21.09;38.16;98443.84;10495254;28;20045;-75
2022/05/08 16:46:53;;;;;;;2.25;1.30;;;;;;;20.93;38.86;98434.72;10497014;28;20505;-75
2022/05/08 16:52:16;;;;;;;3.38;1.38;;;;;;;20.66;39.21;98437.97;10444808;28;20048;-75
2022/05/08 16:57:37;;;;;;;4.03;1.70;;;;;;;20.68;39.80;98446.53;10495714;28;20090;-85
2022/05/08 17:02:57;;;;;;;2.30;1.50;;;;;;;20.67;39.99;98428.78;10468695;28;20052;-83
2022/05/08 17:08:18;;;;;;;3.95;2.05;;;;;;;20.74;40.11;98421.97;10497140;28;20051;-77
2022/05/08 17:13:39;;;;;;;2.47;2.05;;;;;;;20.79;40.20;98429.25;10496425;28;20040;-80
2022/05/08 17:19:00;;;;;;;5.47;2.15;;;;;;;20.63;41.20;98439.25;10463202;28;20040;-78
2022/05/08 17:24:21;;;;;;;10.52;2.10;;;;;;;20.73;41.04;98443.19;10503995;28;20443;-75
2022/05/08 17:29:43;;;;;;;4.00;2.38;;;;;;;20.81;41.39;98446.34;10499914;28;20040;-76
2022/05/08 17:35:06;;;;;;;3.92;2.38;;;;;;;20.67;41.51;98459.28;10428657;28;20041;-79
2022/05/08 17:40:35;;;;;;;4.18;1.98;;;;;;;20.45;41.46;98456.25;10453789;28;20044;-77
2022/05/08 17:46:00;;;;;;;4.63;2.65;;;;;;;20.27;41.91;98467.59;10520224;28;20405;-77
2022/05/08 17:51:21;;;;;;;4.05;2.30;;;;;;;20.15;42.43;98478.41;10499910;28;20040;-74
2022/05/08 17:56:42;;;;;;;4.55;2.45;;;;;;;20.06;43.17;98488.69;10481146;28;20052;-83
2022/05/08 18:07:42;;;;;;;3.65;2.13;;;;;;;19.59;44.03;98495.19;10545629;28;20405;-80
2022/05/08 18:13:03;;;;;;;5.07;2.90;;;;;;;19.38;44.72;98499.16;10525536;28;20048;-80
2022/05/08 18:18:24;;;;;;;4.50;2.55;;;;;;;19.15;45.30;98502.38;10530913;28;20078;-81
2022/05/08 18:23:45;;;;;;;5.47;2.72;;;;;;;19.01;45.33;98513.78;10568389;28;20065;-81
2022/05/08 18:29:06;;;;;;;4.35;2.78;;;;;;;19.03;46.07;98528.00;10544727;28;20059;-81
2022/05/08 18:34:28;;;;;;;7.40;3.40;;;;;;;18.97;46.24;98535.47;10572661;28;20039;-78
2022/05/08 18:39:49;;;;;;;5.57;3.20;;;;;;;18.75;46.33;98540.81;10558578;28;20043;-81
2022/05/08 18:45:10;;;;;;;4.13;2.60;;;;;;;18.59;47.42;98544.28;10544118;28;20124;-90
2022/05/08 18:50:34;;;;;;;6.03;2.92;;;;;;;18.39;48.09;98554.59;10557957;28;20040;-87
2022/05/08 18:55:55;;;;;;;5.45;2.92;;;;;;;18.40;47.87;98563.81;10530128;28;20051;-83
2022/05/08 19:01:17;;;;;;;5.00;3.13;;;;;;;18.38;47.94;98558.78;10557327;28;20051;-81
2022/05/08 19:06:38;;;;;;;4.88;2.72;;;;;;;18.44;48.24;98561.19;10501886;28;20494;-83
2022/05/08 19:11:59;;;;;;;4.45;2.80;;;;;;;18.59;48.37;98560.50;10515171;28;20040;-82
2022/05/08 19:17:20;;;;;;;6.00;3.00;;;;;;;18.54;48.74;98570.91;10515386;28;20397;-77
2022/05/08 19:22:41;;;;;;;4.63;3.10;;;;;;;18.48;48.95;98567.75;10500938;28;20064;-86
2022/05/08 19:28:02;;;;;;;5.07;3.08;;;;;;;18.59;49.25;98580.31;10500724;28;20048;-81
2022/05/08 19:39:04;;;;;;;5.07;3.33;;;;;;;18.67;49.46;98594.13;10530926;28;20044;-81
2022/05/08 19:44:24;;;;;;;4.47;3.05;;;;;;;18.70;49.29;98598.53;10528042;28;20400;-80
2022/05/08 19:49:53;;;;;;;5.63;3.45;;;;;;;18.71;49.63;98597.88;10513446;28;20036;-81
2022/05/08 19:55:14;;;;;;;5.10;3.20;;;;;;;18.71;49.73;98602.81;10522259;28;20073;-86
2022/05/08 20:00:35;;;;;;;8.20;3.85;;;;;;;18.74;49.76;98605.13;10535925;28;20413;-86
2022/05/08 20:05:56;;;;;;;6.10;3.58;;;;;;;18.78;49.96;98616.63;10534950;28;20039;-84
2022/05/08 20:11:17;;;;;;;4.82;3.47;;;;;;;18.80;49.92;98613.16;10549335;28;20040;-84
2022/05/08 20:16:38;;;;;;;5.82;2.97;;;;;;;18.73;50.56;98614.25;10535243;28;20036;-86
2022/05/08 20:22:02;;;;;;;6.38;3.88;;;;;;;18.79;49.92;98628.66;10533247;28;20040;-85
2022/05/08 20:27:23;;;;;;;4.95;3.20;;;;;;;18.70;50.08;98632.44;10545903;28;20035;-85
2022/05/08 20:32:44;;;;;;;4.45;3.05;;;;;;;18.64;50.31;98637.78;10549539;28;20050;-85
2022/05/08 20:38:05;;;;;;;5.32;3.38;;;;;;;18.70;50.23;98641.66;10535164;28;20040;-85
2022/05/08 20:43:27;;;;;;;6.13;3.30;;;;;;;18.69;50.46;98642.31;10569707;28;20093;-87
2022/05/08 20:48:48;;;;;;;4.78;3.67;;;;;;;18.66;50.39;98643.56;10541231;28;20442;-85
2022/05/08 20:54:10;;;;;;;6.93;3.92;;;;;;;18.64;50.38;98640.63;10562167;28;20044;-85
2022/05/08 20:59:31;;;;;;;5.30;3.42;;;;;;;18.64;50.33;98646.28;10523298;28;20039;-87
2022/05/08 21:07:51;;;;;;;4.70;3.72;;;;;;;18.54;50.58;98646.50;10537041;28;20040;-85
2022/05/08 21:10:36;;;;;;;5.22;3.63;;;;;;;18.55;50.19;98650.78;10541757;28;20051;-87
2022/05/08 21:15:57;;;;;;;5.15;3.95;;;;;;;18.52;50.24;98641.44;10538450;28;20039;-85
2022/05/08 21:21:18;;;;;;;4.05;3.63;;;;;;;18.49;51.01;98644.81;10552176;28;20047;-86
2022/05/08 21:26:40;;;;;;;6.03;3.85;;;;;;;18.46;50.79;98646.81;10524727;28;20485;-86
2022/05/08 21:32:01;;;;;;;5.65;3.88;;;;;;;18.36;50.99;98654.06;10551988;28;20040;-85
2022/05/08 21:37:22;;;;;;;7.88;5.13;;;;;;;18.29;51.07;98653.00;10552134;28;20039;-85
2022/05/08 21:42:43;;;;;;;5.30;3.40;;;;;;;18.15;51.26;98655.09;10538379;28;20047;-85
2022/05/08 21:48:03;;;;;;;6.75;3.55;;;;;;;18.11;51.43;98652.78;10538048;28;20047;-86
2022/05/08 21:53:24;;;;;;;4.90;3.50;;;;;;;18.12;51.47;98656.34;10523690;28;20040;-86
2022/05/08 21:58:45;;;;;;;4.80;3.70;;;;;;;18.08;51.55;98664.59;10551642;28;20386;-86
2022/05/08 22:04:06;;;;;;;5.15;3.13;;;;;;;18.05;51.23;98660.94;10537316;28;20039;-87
2022/05/08 22:09:26;;;;;;;4.28;3.20;;;;;;;18.06;51.30;98670.16;10549856;28;20129;-85
2022/05/08 22:14:47;;;;;;;5.05;3.47;;;;;;;18.01;51.47;98672.03;10531583;28;20047;-85
2022/05/08 22:20:08;;;;;;;5.07;3.50;;;;;;;17.96;51.56;98673.91;10540237;28;20059;-85
2022/05/08 22:25:31;;;;;;;6.60;3.30;;;;;;;17.83;51.73;98676.69;10533785;28;20051;-86
2022/05/08 22:30:52;;;;;;;9.88;3.70;;;;;;;17.71;52.03;98682.41;10536222;28;20040;-85
2022/05/08 22:36:13;;;;;;;5.95;3.92;;;;;;;17.62;52.14;98675.56;10553478;28;20059;-85
2022/05/08 22:41:38;;;;;;;8.15;3.90;;;;;;;17.50;52.30;98679.81;10544581;28;20079;-86
2022/05/08 22:46:59;;;;;;;8.52;4.32;;;;;;;17.32;52.95;98671.06;10544639;28;20047;-86
2022/05/08 22:52:20;;;;;;;7.53;4.38;;;;;;;17.20;52.95;98671.13;10557846;28;20043;-87
2022/05/08 22:57:41;;;;;;;5.55;4.10;;;;;;;17.07;53.21;98669.69;10557283;28;20039;-85
2022/05/08 23:03:02;;;;;;;6.70;3.97;;;;;;;17.01;53.49;98677.09;10543130;28;20044;-84
2022/05/08 23:08:23;;;;;;;5.25;4.38;;;;;;;16.92;53.66;98681.53;10571238;28;20047;-86
2022/05/08 23:13:43;;;;;;;4.35;3.85;;;;;;;16.97;53.77;98679.66;10542814;28;20084;-86
2022/05/08 23:19:05;;;;;;;4.43;3.47;;;;;;;17.05;53.95;98677.31;10557174;28;20495;-85
2022/05/08 23:24:27;;;;;;;5.55;3.70;;;;;;;17.12;53.86;98676.31;10542815;28;20081;-86
2022/05/08 23:29:47;;;;;;;5.10;4.07;;;;;;;17.13;54.08;98680.59;10570416;28;20281;-87
2022/05/08 23:35:08;;;;;;;5.28;3.70;;;;;;;17.08;54.03;98679.66;10541863;28;20048;-85
2022/05/08 23:40:31;;;;;;;4.82;4.15;;;;;;;17.02;54.46;98672.91;10542091;28;20043;-86
2022/05/08 23:45:52;;;;;;;5.35;3.70;;;;;;;16.98;54.41;98672.66;10569705;28;20058;-85
2022/05/08 23:51:25;;;;;;;5.22;4.05;;;;;;;16.88;54.91;98662.28;10555470;28;20071;-85
2022/05/08 23:56:46;;;;;;;;;;;;;;;16.84;55.25;98676.16;10545367;28;20054;-85
